2004 MISSING (2004332N02072)


On this page: IBTrACS data - Map and Plots - Positions - Intensities - Original source data

Summary

Start Nov 27
End Dec 5
Basin NI
LMI 65 kt
Sources jtwc_io
newdelhi
In WMO? Yes
Previous storm 2004 OTTO (NA)
Previous in basin 2004 MUIFA (WP)
Concurrent storms 2005 BENTO (SI)
2004 OTTO (NA)
2004 MISSING (NI)
2004 NANMADOL (WP)
2005 MISSING (SI)
Next in basin Missing
Next storm 2004 NANMADOL (WP)

top of page IBTrACS Data: File Access

top of page HURSAT Data: File Access

Image of storm

top of page Plots:

Map of storm track will not appear if FTP is down
Time series of cyclone Maximum Sustained Wind will not appear if FTP is down
Time series of cyclone Minimum Central Pressure will not appear if FTP is down

top of page Track Data:Position

jtwc_io newdelhi
Date Lat Lon Lat Lon
2004-11-27 00:00:00 1.6 72.4
2004-11-27 06:00:00 1.5 71.5
2004-11-27 12:00:00 1.2 70.7
2004-11-27 18:00:00 0.9 69.9
2004-11-28 00:00:00 0.7 69.0
2004-11-28 06:00:00 0.8 68.3
2004-11-28 12:00:00 1.1 67.5
2004-11-28 18:00:00 1.5 66.7
2004-11-29 00:00:00 2.0 65.9
2004-11-29 06:00:00 2.7 65.0
2004-11-29 12:00:00 3.5 64.3
2004-11-29 18:00:00 4.3 63.6 3.5 64.0
2004-11-30 00:00:00 5.1 62.9 4.5 63.0
2004-11-30 06:00:00 5.7 61.8 5.5 61.5
2004-11-30 12:00:00 6.1 60.8 6.0 60.5
2004-11-30 18:00:00 6.5 59.9 6.0 60.0
2004-12-01 00:00:00 7.0 59.4 7.0 59.5
2004-12-01 06:00:00 7.5 58.9 7.0 59.5
2004-12-01 12:00:00 7.8 58.2 7.5 58.5
2004-12-01 18:00:00 7.8 57.4 7.7 58.0
2004-12-02 00:00:00 7.9 56.5 7.9 57.0
2004-12-02 06:00:00 8.2 55.6 8.0 56.0
2004-12-02 12:00:00 8.2 55.0 8.0 55.0
2004-12-02 18:00:00 8.2 54.4
2004-12-03 00:00:00 8.3 53.9
jtwc_io newdelhi
2004-12-03 06:00:00 8.3 53.4
2004-12-03 12:00:00 8.2 52.9
2004-12-03 18:00:00 7.9 52.1
2004-12-04 00:00:00 7.5 51.3
2004-12-04 06:00:00 6.9 50.3
2004-12-04 12:00:00 6.1 49.2
2004-12-04 18:00:00 4.6 47.9
2004-12-05 00:00:00 3.4 46.4
2004-12-05 06:00:00 1.9 46.5

top of pageTrack Data:Intensity

jtwc_io newdelhi
Date Wind Pres Wind Pres
2004-11-27 00:00:00 20. 1004.
2004-11-27 06:00:00 20. 1004.
2004-11-27 12:00:00 20. 1004.
2004-11-27 18:00:00 30. 1000.
2004-11-28 00:00:00 35. 997.
2004-11-28 06:00:00 40. 994.
2004-11-28 12:00:00 45. 991.
2004-11-28 18:00:00 50. 987.
2004-11-29 00:00:00 60. 980.
2004-11-29 06:00:00 65. 976.
2004-11-29 12:00:00 65. 976.
2004-11-29 18:00:00 55. 984. 35. 1004.
2004-11-30 00:00:00 60. 980. 35. 1004.
2004-11-30 06:00:00 65. 976. 55. 994.
2004-11-30 12:00:00 65. 976. 55. 994.
2004-11-30 18:00:00 65. 976. 45. 998.
2004-12-01 00:00:00 60. 980. 35. 1002.
2004-12-01 06:00:00 55. 984. 35. 1002.
2004-12-01 12:00:00 50. 987. 25. 1006.
2004-12-01 18:00:00 45. 991. 25. 1006.
2004-12-02 00:00:00 45. 991. 25. 1006.
2004-12-02 06:00:00 45. 991. 25. 1006.
2004-12-02 12:00:00 40. 994. 25. 1006.
2004-12-02 18:00:00 40. 994.
2004-12-03 00:00:00 40. 994.
jtwc_io newdelhi
2004-12-03 06:00:00 40. 994.
2004-12-03 12:00:00 35. 997.
2004-12-03 18:00:00 30. 1000.
2004-12-04 00:00:00 30. 1000.
2004-12-04 06:00:00 30. 1000.
2004-12-04 12:00:00 25. 1002.
2004-12-04 18:00:00 25. 1002.
2004-12-05 00:00:00 25. 1002.
2004-12-05 06:00:00 20. 1004.

top of page Links to source data

Source Source file Format
jtwc_io bio052004.txt ATCF
newdelhi New_Delhi_Tropical_Cyclone_Track_and_Intensity_Current.csv:Line=2266 New Delhi CSV file (from Excel file)